| Date | Time | Temp. (oF) | Dew Point (oF) | Rel. Hum. (%) | Press. (in.) | Wind Dir. | Wind Speed (mph) | Hourly Rainfall (in.) |
|
|---|---|---|---|---|---|---|---|---|---|
| 1 | 12/04 | 00:00 | 18 | 3 | 53 | 30.53 | NW | 5 | 0.00 |
| 2 | 12/03 | 23:00 | 18 | 3 | 52 | 30.52 | W | 4 | 0.00 |
| 3 | 12/03 | 22:00 | 19 | 3 | 50 | 30.50 | NNW | 5 | 0.00 |
| 4 | 12/03 | 21:00 | 19 | 2 | 48 | 30.50 | W | 4 | 0.00 |
| 5 | 12/03 | 20:00 | 19 | 3 | 50 | 30.49 | NW | 4 | 0.00 |
| 6 | 12/03 | 19:00 | 20 | 4 | 50 | 30.48 | WNW | 1 | 0.00 |
| 7 | 12/03 | 18:00 | 21 | 4 | 48 | 30.46 | WNW | 3 | 0.00 |
| 8 | 12/03 | 17:00 | 22 | 3 | 44 | 30.45 | NW | 4 | 0.00 |
| 9 | 12/03 | 16:00 | 24 | 4 | 42 | 30.41 | NW | 6 | 0.00 |
| 10 | 12/03 | 15:00 | 24 | 4 | 42 | 30.40 | WNW | 10 | 0.00 |
| 11 | 12/03 | 14:00 | 23 | 4 | 45 | 30.39 | WNW | 9 | 0.00 |
| 12 | 12/03 | 13:00 | 23 | 5 | 47 | 30.41 | NW | 13 | 0.00 |
| 13 | 12/03 | 12:00 | 20 | 2 | 47 | 30.42 | WNW | 7 | 0.00 |
| 14 | 12/03 | 11:00 | 19 | 2 | 48 | 30.43 | NW | 12 | 0.00 |
| 15 | 12/03 | 10:00 | 17 | 1 | 50 | 30.42 | WNW | 15 | 0.00 |
| 16 | 12/03 | 09:00 | 16 | 0 | 49 | 30.39 | NW | 13 | 0.00 |
| 17 | 12/03 | 08:00 | 16 | 0 | 47 | 30.34 | NNW | 12 | 0.00 |
| 18 | 12/03 | 07:00 | 16 | 0 | 47 | 30.29 | NW | 14 | 0.00 |
| 19 | 12/03 | 06:00 | 18 | 6 | 59 | 30.23 | NW | 6 | 0.00 |
| 20 | 12/03 | 05:00 | 20 | 9 | 64 | 30.18 | NW | 8 | 0.00 |
| 21 | 12/03 | 04:00 | 22 | 12 | 66 | 30.14 | NW | 10 | 0.00 |
| 22 | 12/03 | 03:00 | 24 | 14 | 68 | 30.09 | NW | 5 | 0.00 |
| 23 | 12/03 | 02:00 | 26 | 18 | 73 | 30.05 | NNW | 14 | 0.00 |
| 24 | 12/03 | 01:00 | 32 | 26 | 79 | 29.97 | NNW | 17 | 0.00 |